Time;durP1;ratioP1;P1;durP2;ratioP2;P2;SDS_P1;SDS_P2;PMS_P1;PMS_P2;Temp;Humidity;BMP_temperature;BMP_pressure;BME280_temperature;BME280_humidity;BME280_pressure;Samples;Min_cycle;Max_cycle;Signal;HPM_P1;HPM_P2
2021/10/14 00:00:11;;;;;;;18.85;14.10;;;;;;;6.18;100.00;99082.36;1587731;88;20933;-69
2021/10/14 00:02:40;;;;;;;15.80;11.85;;;;;;;6.16;100.00;99087.59;1592849;88;21123;-69
2021/10/14 00:05:09;;;;;;;15.58;12.25;;;;;;;6.12;100.00;99088.38;1592971;88;20976;-70
2021/10/14 00:07:38;;;;;;;14.93;11.05;;;;;;;6.11;100.00;99087.06;1592852;88;21484;-70
2021/10/14 00:10:08;;;;;;;16.62;12.25;;;;;;;6.11;100.00;99093.61;1592843;88;21038;-70
2021/10/14 00:12:36;;;;;;;17.37;12.78;;;;;;;6.12;100.00;99089.69;1593136;88;21510;-69
2021/10/14 00:15:07;;;;;;;17.27;11.73;;;;;;;6.10;100.00;99090.11;1593464;88;21102;-69
2021/10/14 00:17:36;;;;;;;15.50;11.80;;;;;;;6.09;100.00;99097.95;1597062;88;21467;-69
2021/10/14 00:20:06;;;;;;;16.25;12.18;;;;;;;6.06;100.00;99092.68;1593040;88;21528;-70
2021/10/14 00:22:38;;;;;;;14.85;11.05;;;;;;;6.04;100.00;99090.05;1593743;89;21897;-69
2021/10/14 00:25:08;;;;;;;16.15;11.95;;;;;;;6.02;100.00;99090.45;1593245;88;21476;-69
2021/10/14 00:27:37;;;;;;;18.65;12.88;;;;;;;5.99;100.00;99093.92;1592964;88;21469;-69
2021/10/14 00:30:07;;;;;;;14.25;11.35;;;;;;;5.97;100.00;99095.64;1593051;88;21459;-69
2021/10/14 00:32:36;;;;;;;15.45;11.63;;;;;;;5.94;100.00;99096.92;1592975;88;21492;-70
2021/10/14 00:35:06;;;;;;;14.33;10.60;;;;;;;5.97;100.00;99094.77;1592762;89;20916;-70
2021/10/14 00:37:35;;;;;;;16.30;11.95;;;;;;;5.98;100.00;99092.59;1591730;89;21509;-68
2021/10/14 00:40:06;;;;;;;13.68;11.38;;;;;;;5.98;100.00;99089.98;1593071;89;21117;-69
2021/10/14 00:42:34;;;;;;;17.48;11.38;;;;;;;5.99;100.00;99098.28;1593143;88;20979;-71
2021/10/14 00:45:03;;;;;;;17.80;13.15;;;;;;;5.97;100.00;99090.84;1575412;88;21517;-70
2021/10/14 00:47:32;;;;;;;17.23;13.25;;;;;;;5.97;100.00;99094.34;1598126;88;21484;-69
2021/10/14 00:50:00;;;;;;;14.98;11.65;;;;;;;5.97;100.00;99094.34;1596634;88;21023;-69
2021/10/14 00:52:28;;;;;;;14.20;10.88;;;;;;;5.97;100.00;99098.70;1592765;88;21084;-69
2021/10/14 00:54:56;;;;;;;15.80;10.85;;;;;;;5.97;100.00;99112.66;1592891;88;21020;-69
2021/10/14 00:57:24;;;;;;;17.12;11.43;;;;;;;5.98;100.00;99110.92;1593060;89;20950;-69
2021/10/14 00:59:56;;;;;;;15.43;11.25;;;;;;;5.99;100.00;99117.92;1592762;90;20925;-70
2021/10/14 01:02:23;;;;;;;17.15;12.25;;;;;;;5.99;100.00;99125.34;1593130;88;21653;-70
2021/10/14 01:04:54;;;;;;;21.20;13.98;;;;;;;5.97;100.00;99127.49;1592636;88;21122;-70
2021/10/14 01:07:23;;;;;;;17.55;12.55;;;;;;;5.96;100.00;99129.66;1593354;88;21465;-69
2021/10/14 01:09:52;;;;;;;16.77;12.28;;;;;;;5.96;100.00;99131.85;1592843;89;20961;-70
2021/10/14 01:12:22;;;;;;;16.77;11.75;;;;;;;5.95;100.00;99133.14;1593047;88;20953;-69
2021/10/14 01:14:51;;;;;;;16.05;10.98;;;;;;;5.94;100.00;99136.62;1593491;88;21440;-70
2021/10/14 01:17:20;;;;;;;13.83;11.08;;;;;;;5.95;100.00;99132.71;1593088;88;21500;-70
2021/10/14 01:19:51;;;;;;;18.02;11.48;;;;;;;5.96;100.00;99131.85;1596419;88;20987;-69
2021/10/14 01:22:20;;;;;;;17.40;12.60;;;;;;;5.96;100.00;99137.52;1595764;88;21477;-70
2021/10/14 01:24:48;;;;;;;16.67;12.40;;;;;;;5.94;100.00;99141.43;1593178;88;21479;-70
2021/10/14 01:27:16;;;;;;;16.00;13.03;;;;;;;5.94;100.00;99145.78;1592924;88;21519;-70
2021/10/14 01:29:45;;;;;;;17.85;12.90;;;;;;;5.92;100.00;99144.45;1592253;88;21079;-70
2021/10/14 01:32:15;;;;;;;19.02;12.75;;;;;;;5.92;100.00;99150.13;1592673;88;21527;-70
2021/10/14 01:34:44;;;;;;;17.90;14.20;;;;;;;5.91;100.00;99148.37;1593020;88;21025;-70
2021/10/14 01:37:13;;;;;;;19.65;13.20;;;;;;;5.94;100.00;99158.88;1593700;89;20945;-70
2021/10/14 01:39:42;;;;;;;19.15;12.55;;;;;;;5.96;100.00;99165.01;1594915;88;21488;-70
2021/10/14 01:42:10;;;;;;;17.52;13.45;;;;;;;5.97;100.00;99173.31;1594496;88;21476;-70
2021/10/14 01:44:43;;;;;;;17.00;13.80;;;;;;;5.96;100.00;99164.58;1593370;90;20952;-69
2021/10/14 01:47:10;;;;;;;17.30;14.38;;;;;;;5.96;100.00;99172.86;1592641;89;20966;-69
2021/10/14 01:49:40;;;;;;;17.50;13.18;;;;;;;5.95;100.00;99169.37;1592730;89;20932;-69
2021/10/14 01:52:09;;;;;;;17.55;13.65;;;;;;;5.95;100.00;99171.11;1593857;88;21028;-69
2021/10/14 01:54:38;;;;;;;17.95;13.35;;;;;;;5.96;100.00;99172.44;1566967;90;21961;-69
2021/10/14 01:57:06;;;;;;;17.00;14.20;;;;;;;6.00;100.00;99173.35;1566541;90;21478;-69
2021/10/14 01:59:34;;;;;;;18.07;13.25;;;;;;;6.00;100.00;99178.59;1579209;88;21088;-68
2021/10/14 02:02:03;;;;;;;17.82;12.50;;;;;;;6.00;100.00;99178.59;1596063;90;21656;-69
2021/10/14 02:04:31;;;;;;;16.87;13.15;;;;;;;6.00;100.00;99181.20;1595947;88;21467;-70
2021/10/14 02:07:00;;;;;;;18.82;13.98;;;;;;;5.98;100.00;99179.00;1594169;90;21096;-70
2021/10/14 02:09:29;;;;;;;19.25;14.68;;;;;;;5.98;100.00;99189.05;1595656;88;21452;-70
2021/10/14 02:11:57;;;;;;;16.77;13.40;;;;;;;5.99;100.00;99191.23;1576268;88;21007;-68
2021/10/14 02:14:26;;;;;;;18.67;14.05;;;;;;;6.01;100.00;99192.13;1594115;90;21500;-69
2021/10/14 02:16:55;;;;;;;19.67;17.62;;;;;;;6.03;100.00;99194.34;1591605;88;21492;-70
2021/10/14 02:19:25;;;;;;;20.72;17.05;;;;;;;6.07;100.00;99197.88;1585897;88;21491;-70
2021/10/14 02:21:54;;;;;;;19.20;15.43;;;;;;;6.06;100.00;99196.11;1571472;90;21514;-70
2021/10/14 02:24:22;;;;;;;18.12;15.43;;;;;;;6.04;100.00;99200.02;1577419;90;21485;-70
2021/10/14 02:26:55;;;;;;;22.02;16.77;;;;;;;6.03;100.00;99205.24;1588525;90;21013;-70
2021/10/14 02:29:26;;;;;;;20.65;14.70;;;;;;;6.02;100.00;99204.79;1568548;90;20920;-70
2021/10/14 02:31:54;;;;;;;18.55;13.98;;;;;;;6.00;100.00;99213.94;1584016;89;21135;-70
2021/10/14 02:34:22;;;;;;;17.73;13.43;;;;;;;5.99;100.00;99225.27;1584513;90;21496;-70
2021/10/14 02:36:52;;;;;;;16.37;13.20;;;;;;;6.02;100.00;99228.36;1591317;89;21497;-69
2021/10/14 02:39:20;;;;;;;20.57;14.20;;;;;;;6.02;100.00;99221.38;1581428;88;20995;-70
2021/10/14 02:41:49;;;;;;;17.10;13.38;;;;;;;6.03;100.00;99230.12;1571476;90;21481;-70
2021/10/14 02:44:18;;;;;;;21.42;14.53;;;;;;;6.02;100.00;99237.52;1589106;88;21095;-71
2021/10/14 02:46:47;;;;;;;17.07;13.48;;;;;;;6.00;100.00;99243.62;1589897;89;20889;-70
2021/10/14 02:49:16;;;;;;;18.77;14.28;;;;;;;6.00;100.00;99255.41;1590575;90;21504;-69
2021/10/14 02:51:45;;;;;;;18.25;13.65;;;;;;;6.01;100.00;99256.28;1590970;88;20989;-71
2021/10/14 02:54:13;;;;;;;20.72;13.95;;;;;;;6.05;100.00;99259.82;1593521;88;21036;-68
2021/10/14 02:56:41;;;;;;;18.73;14.07;;;;;;;6.07;100.00;99256.80;1596880;88;21263;-67
2021/10/14 02:59:14;;;;;;;18.30;14.35;;;;;;;6.08;100.00;99265.09;1595069;88;21012;-70
2021/10/14 03:01:41;;;;;;;19.42;14.38;;;;;;;6.08;100.00;99265.98;1596933;89;20952;-71
2021/10/14 03:04:08;;;;;;;18.82;14.45;;;;;;;6.08;100.00;99274.27;1597478;88;21197;-71
2021/10/14 03:06:38;;;;;;;18.40;14.07;;;;;;;6.09;100.00;99276.91;1595290;88;20969;-68
2021/10/14 03:09:06;;;;;;;19.80;14.40;;;;;;;6.10;100.00;99269.92;1574208;90;21084;-70
2021/10/14 03:11:34;;;;;;;19.35;14.80;;;;;;;6.15;100.00;99269.56;1558383;92;20882;-70
2021/10/14 03:14:04;;;;;;;26.85;16.67;;;;;;;6.19;100.00;99265.72;1560753;91;21486;-70
2021/10/14 03:16:32;;;;;;;22.35;16.52;;;;;;;6.20;100.00;99267.91;1566559;88;21561;-70
2021/10/14 03:19:01;;;;;;;22.13;16.10;;;;;;;6.20;100.00;99275.34;1573348;89;21059;-70
2021/10/14 03:21:30;;;;;;;21.07;15.53;;;;;;;6.20;100.00;99271.84;1588726;89;21484;-70
2021/10/14 03:23:57;;;;;;;20.37;14.87;;;;;;;6.21;100.00;99273.17;1594000;88;20888;-70
2021/10/14 03:26:26;;;;;;;19.37;15.08;;;;;;;6.24;100.00;99274.52;1595251;88;21032;-70
2021/10/14 03:28:55;;;;;;;22.17;15.80;;;;;;;6.26;100.00;99287.20;1595444;88;21004;-70
2021/10/14 03:31:23;;;;;;;19.07;16.37;;;;;;;6.26;100.00;99286.33;1595934;89;21098;-71
2021/10/14 03:33:51;;;;;;;19.45;14.93;;;;;;;6.26;100.00;99288.52;1593320;88;21100;-70
2021/10/14 03:36:19;;;;;;;20.60;14.68;;;;;;;6.25;100.00;99282.83;1592281;89;20959;-70
2021/10/14 03:38:46;;;;;;;20.60;15.38;;;;;;;6.25;100.00;99293.30;1593177;89;21044;-67
2021/10/14 03:41:14;;;;;;;18.98;14.83;;;;;;;6.28;100.00;99295.97;1595542;88;21040;-69
2021/10/14 03:43:43;;;;;;;21.10;15.80;;;;;;;6.30;100.00;99294.25;1596455;88;21573;-69
2021/10/14 03:46:12;;;;;;;19.92;15.90;;;;;;;6.30;100.00;99296.87;1581174;89;21099;-70
2021/10/14 03:48:40;;;;;;;19.77;15.80;;;;;;;6.29;100.00;99294.23;1587644;89;21502;-70
2021/10/14 03:51:08;;;;;;;20.05;15.53;;;;;;;6.28;100.00;99299.02;1584559;88;20980;-70
2021/10/14 03:53:36;;;;;;;20.70;15.23;;;;;;;6.26;100.00;99303.36;1594229;89;20980;-70
2021/10/14 03:56:05;;;;;;;20.40;15.08;;;;;;;6.25;100.00;99305.09;1592801;89;21471;-69
2021/10/14 03:58:33;;;;;;;20.80;15.50;;;;;;;6.27;100.00;99311.23;1593197;88;22153;-70
2021/10/14 04:01:00;;;;;;;21.35;15.45;;;;;;;6.26;100.00;99321.27;1592827;90;20928;-70
2021/10/14 04:03:30;;;;;;;22.55;17.05;;;;;;;6.26;100.00;99326.94;1592862;88;21464;-70
2021/10/14 04:05:58;;;;;;;21.33;16.27;;;;;;;6.23;100.00;99325.58;1592903;88;21424;-70
2021/10/14 04:08:29;;;;;;;19.70;15.20;;;;;;;6.20;100.00;99330.34;1593201;88;20946;-67
2021/10/14 04:10:56;;;;;;;23.32;16.32;;;;;;;6.20;100.00;99336.89;1593128;88;21107;-68
2021/10/14 04:13:24;;;;;;;21.25;16.42;;;;;;;6.24;100.00;99343.06;1571564;90;20924;-70
2021/10/14 04:15:52;;;;;;;22.90;16.65;;;;;;;6.21;100.00;99337.77;1592938;88;21467;-70
2021/10/14 04:18:19;;;;;;;21.87;16.87;;;;;;;6.20;100.00;99342.56;1593284;88;20957;-70
2021/10/14 04:20:48;;;;;;;24.43;17.17;;;;;;;6.19;100.00;99342.11;1592595;88;21008;-70
2021/10/14 04:23:17;;;;;;;24.15;17.07;;;;;;;6.17;100.00;99338.16;1595156;88;21096;-70
2021/10/14 04:25:45;;;;;;;21.68;17.17;;;;;;;6.18;100.00;99339.92;1595666;88;20901;-68
2021/10/14 04:28:13;;;;;;;21.97;16.70;;;;;;;6.21;100.00;99342.59;1597186;88;21662;-70
2021/10/14 04:30:42;;;;;;;22.75;17.80;;;;;;;6.23;100.00;99339.55;1593924;88;21449;-70
2021/10/14 04:33:10;;;;;;;25.62;18.73;;;;;;;6.23;100.00;99341.30;1593016;90;21026;-70
2021/10/14 04:35:37;;;;;;;23.85;17.35;;;;;;;6.22;100.00;99340.41;1592393;88;21953;-70
2021/10/14 04:38:05;;;;;;;29.42;17.35;;;;;;;6.22;100.00;99343.47;1592951;88;20921;-69
2021/10/14 04:40:35;;;;;;;23.87;17.95;;;;;;;6.22;100.00;99350.89;1582850;88;21481;-69
2021/10/14 04:43:07;;;;;;;24.12;17.35;;;;;;;6.25;100.00;99348.75;1588526;88;21480;-70
2021/10/14 04:45:36;;;;;;;25.05;18.07;;;;;;;6.27;100.00;99357.08;1577177;88;21533;-70
2021/10/14 04:48:04;;;;;;;26.05;17.70;;;;;;;6.29;100.00;99355.80;1594917;88;21084;-71
2021/10/14 04:50:32;;;;;;;22.00;17.07;;;;;;;6.29;100.00;99357.98;1593136;88;21448;-67
2021/10/14 04:53:00;;;;;;;22.98;17.35;;;;;;;6.30;100.00;99357.55;1593016;89;21008;-69
2021/10/14 04:55:28;;;;;;;21.27;17.35;;;;;;;6.30;100.00;99361.48;1592954;88;20933;-70
2021/10/14 04:57:56;;;;;;;21.42;17.35;;;;;;;6.34;100.00;99372.89;1592696;88;20977;-70
2021/10/14 05:00:24;;;;;;;22.90;17.20;;;;;;;6.37;100.00;99376.86;1592816;89;21943;-69
2021/10/14 05:02:52;;;;;;;23.05;18.10;;;;;;;6.37;100.00;99377.73;1592761;88;21523;-68
2021/10/14 05:05:20;;;;;;;23.52;16.73;;;;;;;6.39;100.00;99384.31;1592751;89;20917;-70
2021/10/14 05:07:47;;;;;;;21.12;16.37;;;;;;;6.39;100.00;99382.57;1593080;90;20948;-70
2021/10/14 05:10:15;;;;;;;22.70;17.50;;;;;;;6.42;100.00;99382.61;1593250;88;21021;-70
2021/10/14 05:12:45;;;;;;;22.22;17.50;;;;;;;6.46;100.00;99384.41;1593331;88;21464;-71
2021/10/14 05:15:13;;;;;;;24.35;17.77;;;;;;;6.50;100.00;99386.65;1592916;88;21524;-71
2021/10/14 05:17:43;;;;;;;21.70;17.17;;;;;;;6.53;100.00;99390.63;1594828;89;20927;-71
2021/10/14 05:20:11;;;;;;;20.95;16.80;;;;;;;6.54;100.00;99396.31;1596773;88;20952;-71
2021/10/14 05:22:39;;;;;;;22.65;17.45;;;;;;;6.56;100.00;99406.39;1597459;88;21033;-71
2021/10/14 05:25:08;;;;;;;24.80;17.80;;;;;;;6.57;100.00;99405.53;1597762;89;21078;-70
2021/10/14 05:27:36;;;;;;;22.62;17.15;;;;;;;6.63;100.00;99418.32;1596682;88;21488;-69
2021/10/14 05:30:05;;;;;;;22.15;18.12;;;;;;;6.67;100.00;99420.98;1598025;88;21512;-69
2021/10/14 05:32:34;;;;;;;28.23;18.10;;;;;;;6.69;100.00;99420.14;1593357;89;21428;-71
2021/10/14 05:35:03;;;;;;;23.73;17.15;;;;;;;6.73;100.00;99421.95;1592502;90;21468;-71
2021/10/14 05:37:32;;;;;;;23.52;17.52;;;;;;;6.75;100.00;99424.16;1592838;88;21165;-69
2021/10/14 05:40:02;;;;;;;22.17;16.90;;;;;;;6.81;100.00;99425.98;1592633;88;20913;-71
2021/10/14 05:42:30;;;;;;;21.82;16.48;;;;;;;6.90;100.00;99424.36;1593259;88;20905;-71
2021/10/14 05:44:58;;;;;;;23.22;16.25;;;;;;;6.98;100.00;99423.58;1592671;88;21037;-71
2021/10/14 05:47:28;;;;;;;23.32;15.98;;;;;;;7.04;100.00;99430.20;1593105;88;21555;-72
2021/10/14 05:49:55;;;;;;;21.60;17.45;;;;;;;7.09;100.00;99433.34;1595079;88;21132;-71
2021/10/14 05:52:23;;;;;;;22.17;16.40;;;;;;;7.13;100.00;99428.61;1597851;88;21402;-71
2021/10/14 05:54:51;;;;;;;22.13;16.65;;;;;;;7.18;100.00;99433.91;1586821;88;20920;-71
2021/10/14 05:57:19;;;;;;;21.87;15.78;;;;;;;7.26;100.00;99430.94;1594685;88;20934;-71
2021/10/14 05:59:46;;;;;;;22.02;16.50;;;;;;;7.32;100.00;99433.63;1593796;88;20989;-71
2021/10/14 06:02:14;;;;;;;21.97;16.95;;;;;;;7.37;100.00;99437.19;1569197;89;21087;-72
2021/10/14 06:04:43;;;;;;;21.87;16.95;;;;;;;7.43;100.00;99445.13;1565790;90;20937;-72
2021/10/14 06:07:11;;;;;;;21.73;16.70;;;;;;;7.46;100.00;99445.16;1563196;90;21001;-71
2021/10/14 06:09:40;;;;;;;20.70;16.82;;;;;;;7.51;100.00;99453.09;1565675;90;20933;-71
2021/10/14 06:12:08;;;;;;;24.00;16.32;;;;;;;7.56;100.00;99457.95;1563303;90;21484;-72
2021/10/14 06:14:36;;;;;;;22.30;16.40;;;;;;;7.63;100.00;99461.55;1563802;90;21806;-72
2021/10/14 06:17:04;;;;;;;35.48;22.22;;;;;;;7.70;100.00;99462.95;1570331;89;20932;-71
2021/10/14 06:19:32;;;;;;;44.30;28.30;;;;;;;7.75;100.00;99469.13;1563802;89;20988;-71
2021/10/14 06:22:01;;;;;;;33.70;23.20;;;;;;;7.80;100.00;99466.55;1563536;90;20976;-69
2021/10/14 06:24:30;;;;;;;34.25;19.77;;;;;;;7.83;100.00;99468.77;1581080;90;20976;-71
2021/10/14 06:26:59;;;;;;;27.50;17.25;;;;;;;7.88;100.00;99470.13;1569356;90;21900;-71
2021/10/14 06:29:27;;;;;;;34.00;16.20;;;;;;;7.92;100.00;99470.60;1587306;88;20924;-71
2021/10/14 06:31:54;;;;;;;26.33;16.75;;;;;;;8.00;100.00;99474.61;1594022;89;20933;-71
2021/10/14 06:34:22;;;;;;;23.83;17.27;;;;;;;8.07;100.00;99472.52;1569995;90;21500;-72
2021/10/14 06:36:50;;;;;;;25.43;17.80;;;;;;;8.12;100.00;99475.64;1563714;90;21496;-71
2021/10/14 06:39:21;;;;;;;23.80;16.65;;;;;;;8.15;100.00;99484.86;1563179;90;21099;-72
2021/10/14 06:41:48;;;;;;;25.02;17.15;;;;;;;8.18;100.00;99485.31;1564734;90;20985;-71
2021/10/14 06:44:16;;;;;;;20.82;15.65;;;;;;;8.22;100.00;99484.48;1590569;88;21496;-72
2021/10/14 06:46:44;;;;;;;19.87;15.18;;;;;;;8.30;100.00;99488.05;1576876;88;21472;-71
2021/10/14 06:49:11;;;;;;;18.55;14.58;;;;;;;8.39;100.00;99490.78;1586989;90;20905;-71
2021/10/14 06:51:40;;;;;;;21.07;15.53;;;;;;;8.49;100.00;99487.80;1594804;90;21091;-71
2021/10/14 06:54:08;;;;;;;28.95;15.80;;;;;;;8.59;100.00;99488.77;1595531;89;21503;-71
2021/10/14 06:56:37;;;;;;;19.60;14.68;;;;;;;8.67;100.00;99489.70;1603791;88;21432;-71
2021/10/14 06:59:05;;;;;;;19.00;15.00;;;;;;;8.76;100.00;99494.59;1603746;88;20956;-71
2021/10/14 07:01:34;;;;;;;20.12;15.68;;;;;;;8.83;100.00;99496.39;1603113;88;21095;-71
2021/10/14 07:04:05;;;;;;;20.43;14.98;;;;;;;8.92;100.00;99493.37;1603463;88;21089;-70
2021/10/14 07:06:33;;;;;;;20.27;14.90;;;;;;;8.98;100.00;99496.03;1603129;88;21971;-71
2021/10/14 07:09:00;;;;;;;25.35;14.83;;;;;;;9.05;100.00;99497.86;1585468;89;21488;-70
2021/10/14 07:11:32;;;;;;;19.60;13.90;;;;;;;9.11;100.00;99503.16;1603905;88;21461;-71
2021/10/14 07:14:00;;;;;;;18.27;14.38;;;;;;;9.19;100.00;99501.88;1604092;88;21484;-70
2021/10/14 07:16:28;;;;;;;17.85;14.87;;;;;;;9.27;100.00;99507.63;1600384;88;21100;-70
2021/10/14 07:18:56;;;;;;;19.95;14.05;;;;;;;9.35;100.00;99508.53;1585495;90;20935;-71
2021/10/14 07:21:23;;;;;;;25.12;14.40;;;;;;;9.43;100.00;99508.13;1592532;88;20972;-71
2021/10/14 07:23:51;;;;;;;17.60;13.65;;;;;;;9.53;100.00;99513.03;1602617;89;20924;-71
2021/10/14 07:26:19;;;;;;;23.67;13.68;;;;;;;9.62;100.00;99514.81;1602292;89;21436;-71
2021/10/14 07:28:47;;;;;;;27.80;14.10;;;;;;;9.71;100.00;99508.26;1602427;88;21094;-72
2021/10/14 07:31:16;;;;;;;16.32;13.08;;;;;;;9.78;100.00;99504.33;1602223;88;21021;-72
2021/10/14 07:33:44;;;;;;;20.37;14.35;;;;;;;9.87;100.00;99504.78;1602433;89;20948;-71
2021/10/14 07:36:12;;;;;;;42.23;15.63;;;;;;;9.96;100.00;99502.20;1602341;88;20940;-72
2021/10/14 07:38:40;;;;;;;33.35;14.78;;;;;;;10.06;100.00;99501.34;1602339;88;21538;-70
2021/10/14 07:41:08;;;;;;;23.55;13.85;;;;;;;10.16;100.00;99496.95;1602306;88;21758;-67
2021/10/14 07:43:38;;;;;;;18.15;14.13;;;;;;;10.26;100.00;99497.44;1602295;88;20888;-63
2021/10/14 07:46:08;;;;;;;25.17;13.72;;;;;;;10.38;100.00;99504.47;1624422;87;21611;-73
2021/10/14 07:48:38;;;;;;;16.23;11.95;;;;;;;10.49;100.00;99500.55;1603115;87;20931;-71
2021/10/14 07:51:07;;;;;;;19.45;12.55;;;;;;;10.60;100.00;99502.73;1595016;89;20944;-68
2021/10/14 07:53:35;;;;;;;18.42;13.68;;;;;;;10.75;100.00;99508.44;1602056;87;21488;-73
2021/10/14 07:56:03;;;;;;;33.02;14.13;;;;;;;10.87;100.00;99504.46;1567139;91;21527;-73
2021/10/14 07:58:32;;;;;;;21.20;12.88;;;;;;;10.99;100.00;99502.70;1566303;91;21015;-73
2021/10/14 08:01:01;;;;;;;15.45;12.13;;;;;;;11.11;100.00;99495.20;1564958;91;20964;-72
2021/10/14 08:03:29;;;;;;;16.35;11.83;;;;;;;11.23;100.00;99501.76;1562218;90;20949;-72
2021/10/14 08:05:57;;;;;;;15.50;11.57;;;;;;;11.34;100.00;99503.92;1558494;91;21118;-72
2021/10/14 08:08:24;;;;;;;14.20;11.15;;;;;;;11.45;100.00;99497.75;1558502;91;21006;-72
2021/10/14 08:10:52;;;;;;;15.08;10.98;;;;;;;11.53;100.00;99491.98;1558918;91;21072;-73
2021/10/14 08:13:19;;;;;;;14.80;11.33;;;;;;;11.64;100.00;99497.66;1558364;91;20926;-64
2021/10/14 08:15:50;;;;;;;15.68;11.33;;;;;;;11.75;100.00;99498.05;1566833;90;20984;-63
2021/10/14 08:18:18;;;;;;;16.40;11.45;;;;;;;11.82;100.00;99494.06;1567081;90;21093;-73
2021/10/14 08:20:46;;;;;;;16.75;12.23;;;;;;;11.92;100.00;99490.52;1568456;90;20892;-72
2021/10/14 08:23:16;;;;;;;13.60;11.15;;;;;;;12.03;100.00;99488.24;1570968;90;21483;-73
2021/10/14 08:25:45;;;;;;;14.05;11.12;;;;;;;12.10;100.00;99483.34;1563688;91;20985;-71
2021/10/14 08:28:12;;;;;;;16.02;10.78;;;;;;;12.13;100.00;99490.81;1567497;90;21492;-72
2021/10/14 08:30:40;;;;;;;13.30;10.63;;;;;;;12.17;100.00;99494.31;1567556;90;21099;-75
2021/10/14 08:33:07;;;;;;;16.77;11.05;;;;;;;12.20;100.00;99495.17;1566415;90;20916;-72
2021/10/14 08:35:38;;;;;;;13.60;10.40;;;;;;;12.28;100.00;99504.37;1566527;90;21489;-73
2021/10/14 08:38:07;;;;;;;17.05;11.45;;;;;;;12.38;100.00;99511.38;1568721;91;20956;-72
2021/10/14 08:40:35;;;;;;;14.75;10.55;;;;;;;12.51;100.00;99518.77;1570459;90;21460;-70
2021/10/14 08:43:06;;;;;;;12.53;9.85;;;;;;;12.64;100.00;99510.28;1570480;91;22013;-71
2021/10/14 08:45:34;;;;;;;13.65;10.10;;;;;;;12.77;100.00;99511.92;1569212;91;20984;-72
2021/10/14 08:48:03;;;;;;;15.30;10.78;;;;;;;12.92;100.00;99506.07;1568498;91;20909;-71
2021/10/14 08:50:39;;;;;;;13.13;10.63;;;;;;;13.06;100.00;99507.70;1568158;91;21642;-72
2021/10/14 08:53:06;;;;;;;14.15;10.40;;;;;;;13.19;100.00;99504.93;1567763;91;21545;-72
2021/10/14 08:55:37;;;;;;;13.28;10.05;;;;;;;13.35;100.00;99499.48;1586069;89;21117;-72
2021/10/14 08:58:08;;;;;;;14.33;10.78;;;;;;;13.50;100.00;99495.33;1595897;89;20930;-72
2021/10/14 09:00:36;;;;;;;18.98;12.03;;;;;;;13.62;100.00;99496.95;1596497;89;20958;-72
2021/10/14 09:03:09;;;;;;;13.65;9.58;;;;;;;13.76;100.00;99489.72;1595364;89;21491;-71
2021/10/14 09:05:45;;;;;;;15.40;10.98;;;;;;;13.89;100.00;99501.03;1593273;89;20982;-72
2021/10/14 09:08:12;;;;;;;13.43;10.53;;;;;;;14.00;100.00;99506.61;1595855;89;21086;-72
2021/10/14 09:10:40;;;;;;;13.70;10.28;;;;;;;14.09;100.00;99510.45;1596354;89;20988;-72
2021/10/14 09:13:16;;;;;;;12.75;9.85;;;;;;;14.19;100.00;99511.23;1596794;89;20974;-72
2021/10/14 09:15:46;;;;;;;12.80;8.98;;;;;;;14.31;99.83;99520.33;1596308;89;21455;-72
2021/10/14 09:18:14;;;;;;;11.73;9.08;;;;;;;14.42;97.46;99516.17;1592120;89;21038;-72
2021/10/14 09:20:44;;;;;;;10.78;8.90;;;;;;;14.55;95.11;99515.56;1552209;90;20882;-72
2021/10/14 09:23:24;;;;;;;10.08;8.63;;;;;;;14.67;93.26;99526.01;1596600;89;21450;-72
2021/10/14 09:25:52;;;;;;;9.98;8.28;;;;;;;14.82;92.02;99528.85;1596520;89;20974;-71
2021/10/14 09:28:26;;;;;;;93.22;12.15;;;;;;;14.96;88.61;99526.83;1596709;89;20974;-72
2021/10/14 09:31:06;;;;;;;15.75;9.18;;;;;;;15.08;85.97;99531.47;1596348;90;20937;-72
2021/10/14 09:33:44;;;;;;;11.10;7.42;;;;;;;15.23;84.00;99532.12;1596789;89;21472;-72
2021/10/14 09:36:22;;;;;;;7.72;6.50;;;;;;;15.38;81.23;99531.82;1596451;89;20934;-72
2021/10/14 09:39:03;;;;;;;9.70;6.97;;;;;;;15.50;77.59;99550.19;1596946;89;21030;-72
2021/10/14 09:41:43;;;;;;;6.83;6.12;;;;;;;15.60;74.22;99542.94;1595978;89;20958;-72
2021/10/14 09:44:16;;;;;;;8.30;6.28;;;;;;;15.74;70.97;99546.22;1596815;89;20946;-72
2021/10/14 09:46:48;;;;;;;7.90;6.60;;;;;;;15.89;68.92;99551.22;1596314;89;21811;-72
2021/10/14 09:49:23;;;;;;;8.10;6.25;;;;;;;16.04;67.31;99548.68;1596486;89;21474;-72
2021/10/14 09:51:51;;;;;;;9.00;6.42;;;;;;;16.21;66.18;99549.21;1596460;89;20986;-72
2021/10/14 09:54:19;;;;;;;5.65;4.72;;;;;;;16.37;64.03;99551.06;1588626;89;21107;-73
2021/10/14 09:56:47;;;;;;;7.45;4.58;;;;;;;16.51;61.61;99545.41;1590672;88;21576;-71
2021/10/14 09:59:17;;;;;;;7.28;4.87;;;;;;;16.66;59.48;99546.44;1602484;87;21142;-66
2021/10/14 10:01:45;;;;;;;14.45;5.30;;;;;;;16.75;57.39;99540.01;1601597;87;20933;-68
2021/10/14 10:04:13;;;;;;;8.30;5.12;;;;;;;16.78;55.97;99544.80;1601531;87;20966;-70
2021/10/14 10:06:42;;;;;;;8.05;4.55;;;;;;;16.78;55.26;99531.94;1601303;87;21023;-69
2021/10/14 10:09:14;;;;;;;4.83;3.98;;;;;;;16.76;53.91;99543.97;1601984;87;20958;-69
2021/10/14 10:11:54;;;;;;;4.65;3.20;;;;;;;16.76;53.91;99543.97;1600245;87;21884;-70
2021/10/14 10:14:24;;;;;;;5.35;3.67;;;;;;;16.80;52.24;99556.30;1592156;88;21100;-69
2021/10/14 10:17:06;;;;;;;4.90;3.30;;;;;;;16.77;50.66;99559.50;1600060;87;21040;-69
2021/10/14 10:19:47;;;;;;;4.60;3.70;;;;;;;16.73;49.38;99559.16;1599133;87;20914;-71
2021/10/14 10:22:37;;;;;;;8.00;3.87;;;;;;;16.73;49.38;99559.16;1597578;87;20957;-69
2021/10/14 10:25:28;;;;;;;5.80;3.90;;;;;;;16.71;49.06;99556.98;1599051;87;21091;-70
2021/10/14 10:28:01;;;;;;;5.67;3.75;;;;;;;16.67;48.31;99570.38;1582843;87;21045;-69
2021/10/14 10:30:32;;;;;;;4.75;3.75;;;;;;;16.58;47.43;99568.36;1600935;87;21071;-70
2021/10/14 10:33:00;;;;;;;4.80;4.10;;;;;;;16.45;46.81;99569.52;1600787;87;20957;-69
2021/10/14 10:35:44;;;;;;;3.05;2.75;;;;;;;16.33;46.78;99570.69;1601049;87;21091;-70
2021/10/14 10:38:21;;;;;;;3.55;3.02;;;;;;;16.23;46.61;99566.48;1601228;87;21159;-70
2021/10/14 10:40:51;;;;;;;3.98;3.40;;;;;;;16.12;46.36;99573.38;1601597;87;20989;-70
2021/10/14 10:43:23;;;;;;;5.85;3.30;;;;;;;16.02;46.30;99568.67;1597851;87;21525;-74
2021/10/14 10:45:55;;;;;;;4.83;3.98;;;;;;;15.94;46.36;99571.95;1601387;87;20902;-74
2021/10/14 10:48:38;;;;;;;5.05;3.60;;;;;;;15.83;46.19;99571.30;1571040;90;21500;-73
2021/10/14 10:51:06;;;;;;;;;;;;;;;15.74;46.45;99580.80;1578593;89;21124;-73
2021/10/14 10:53:48;;;;;;;6.85;3.52;;;;;;;15.64;46.84;99576.58;1562835;90;20119;-73
2021/10/14 10:56:31;;;;;;;6.12;4.45;;;;;;;15.56;47.10;99580.64;1597693;87;20997;-72
2021/10/14 10:58:59;;;;;;;5.35;4.50;;;;;;;15.47;47.40;99579.50;1599163;89;20954;-67
2021/10/14 11:01:29;;;;;;;11.65;4.37;;;;;;;15.42;47.70;99581.37;1599166;87;20989;-75
2021/10/14 11:04:01;;;;;;;7.58;4.10;;;;;;;15.36;47.77;99570.39;1598925;87;21174;-73
2021/10/14 11:06:31;;;;;;;9.25;3.17;;;;;;;15.34;47.90;99568.67;1600006;87;21041;-69
2021/10/14 11:09:05;;;;;;;13.10;3.95;;;;;;;15.31;47.93;99560.76;1597530;87;20978;-72
2021/10/14 11:11:34;;;;;;;3.92;3.30;;;;;;;15.29;47.87;99558.13;1600488;87;20990;-72
2021/10/14 11:14:05;;;;;;;3.90;3.40;;;;;;;15.30;47.79;99553.23;1600686;87;20983;-72
2021/10/14 11:16:33;;;;;;;7.12;3.55;;;;;;;15.34;47.86;99550.94;1601125;87;21137;-73
2021/10/14 11:19:01;;;;;;;9.10;4.90;;;;;;;15.40;47.71;99556.14;1600192;87;20989;-72
2021/10/14 11:21:30;;;;;;;10.15;6.42;;;;;;;15.45;47.67;99556.05;1597526;87;20929;-73
2021/10/14 11:23:59;;;;;;;5.50;4.53;;;;;;;15.53;47.74;99555.90;1600618;87;21042;-73
2021/10/14 11:26:36;;;;;;;5.65;3.98;;;;;;;15.61;47.60;99546.05;1599948;87;21031;-73
2021/10/14 11:29:12;;;;;;;7.60;3.92;;;;;;;15.65;46.80;99551.73;1598830;87;21218;-72